sensor_id;sensor_type;location;lat;lon;timestamp;temperature;humidity
51853;DHT22;37894;53.172;6.598;2023-03-01T00:01:22;0.30;99.90
51853;DHT22;37894;53.172;6.598;2023-03-01T00:03:48;-0.50;99.90
51853;DHT22;37894;53.172;6.598;2023-03-01T00:08:40;-0.60;99.90
51853;DHT22;37894;53.172;6.598;2023-03-01T00:11:09;-0.70;99.90
51853;DHT22;37894;53.172;6.598;2023-03-01T00:13:36;-0.50;99.90
51853;DHT22;37894;53.172;6.598;2023-03-01T00:16:07;-0.40;99.90
51853;DHT22;37894;53.172;6.598;2023-03-01T00:18:33;-0.80;99.90
51853;DHT22;37894;53.172;6.598;2023-03-01T00:20:59;-0.50;99.90
51853;DHT22;37894;53.172;6.598;2023-03-01T00:23:25;-0.70;99.90
51853;DHT22;37894;53.172;6.598;2023-03-01T00:25:52;0.20;99.90
51853;DHT22;37894;53.172;6.598;2023-03-01T00:28:18;-0.80;99.90
51853;DHT22;37894;53.172;6.598;2023-03-01T00:30:44;-2.50;99.90
51853;DHT22;37894;53.172;6.598;2023-03-01T00:33:10;-0.90;99.90
51853;DHT22;37894;53.172;6.598;2023-03-01T00:38:02;-1.20;99.90
51853;DHT22;37894;53.172;6.598;2023-03-01T00:40:31;-1.30;99.90
51853;DHT22;37894;53.172;6.598;2023-03-01T00:42:57;-0.80;99.90
51853;DHT22;37894;53.172;6.598;2023-03-01T00:45:23;-0.90;99.90
51853;DHT22;37894;53.172;6.598;2023-03-01T00:47:49;-1.00;99.90
51853;DHT22;37894;53.172;6.598;2023-03-01T00:50:15;-1.50;99.90
51853;DHT22;37894;53.172;6.598;2023-03-01T00:52:41;-1.90;99.90
51853;DHT22;37894;53.172;6.598;2023-03-01T00:57:33;-1.20;99.90
51853;DHT22;37894;53.172;6.598;2023-03-01T00:59:59;-1.00;99.90
51853;DHT22;37894;53.172;6.598;2023-03-01T01:02:25;-0.90;99.90
51853;DHT22;37894;53.172;6.598;2023-03-01T01:04:51;-1.60;99.90
51853;DHT22;37894;53.172;6.598;2023-03-01T01:09:43;-1.10;99.90
51853;DHT22;37894;53.172;6.598;2023-03-01T01:19:27;-1.40;99.90
51853;DHT22;37894;53.172;6.598;2023-03-01T01:21:53;-1.40;99.90
51853;DHT22;37894;53.172;6.598;2023-03-01T01:24:19;-1.80;99.90
51853;DHT22;37894;53.172;6.598;2023-03-01T01:29:11;-1.40;99.90
51853;DHT22;37894;53.172;6.598;2023-03-01T01:31:38;-1.60;99.90
51853;DHT22;37894;53.172;6.598;2023-03-01T01:34:06;-1.60;99.90
51853;DHT22;37894;53.172;6.598;2023-03-01T01:36:33;-1.60;99.90
51853;DHT22;37894;53.172;6.598;2023-03-01T01:39:00;-1.40;99.90
51853;DHT22;37894;53.172;6.598;2023-03-01T01:41:27;-1.70;99.90
51853;DHT22;37894;53.172;6.598;2023-03-01T01:44:13;-1.80;99.90
51853;DHT22;37894;53.172;6.598;2023-03-01T01:47:00;-1.60;99.90
51853;DHT22;37894;53.172;6.598;2023-03-01T01:57:26;-1.90;99.90
51853;DHT22;37894;53.172;6.598;2023-03-01T01:59:56;-1.60;99.90
51853;DHT22;37894;53.172;6.598;2023-03-01T02:02:23;-0.90;99.90
51853;DHT22;37894;53.172;6.598;2023-03-01T02:05:04;-1.50;99.90
51853;DHT22;37894;53.172;6.598;2023-03-01T02:07:37;-1.90;99.90
51853;DHT22;37894;53.172;6.598;2023-03-01T02:14:56;-1.60;99.90
51853;DHT22;37894;53.172;6.598;2023-03-01T02:17:22;-1.90;99.90
51853;DHT22;37894;53.172;6.598;2023-03-01T02:20:00;-1.40;99.90
51853;DHT22;37894;53.172;6.598;2023-03-01T02:22:34;-2.00;99.90
51853;DHT22;37894;53.172;6.598;2023-03-01T02:28:03;-2.10;99.90
51853;DHT22;37894;53.172;6.598;2023-03-01T02:30:32;-2.10;99.90
51853;DHT22;37894;53.172;6.598;2023-03-01T02:32:59;-1.50;99.90
51853;DHT22;37894;53.172;6.598;2023-03-01T02:35:31;-1.80;99.90
51853;DHT22;37894;53.172;6.598;2023-03-01T02:37:58;-1.50;99.90
51853;DHT22;37894;53.172;6.598;2023-03-01T02:40:28;-1.90;99.90
51853;DHT22;37894;53.172;6.598;2023-03-01T02:42:57;-1.70;99.90
51853;DHT22;37894;53.172;6.598;2023-03-01T02:45:24;-2.00;99.90
51853;DHT22;37894;53.172;6.598;2023-03-01T02:47:52;-0.50;99.90
51853;DHT22;37894;53.172;6.598;2023-03-01T02:53:01;-1.80;99.90
51853;DHT22;37894;53.172;6.598;2023-03-01T02:55:30;-1.40;99.90
51853;DHT22;37894;53.172;6.598;2023-03-01T02:57:56;-1.60;99.90
51853;DHT22;37894;53.172;6.598;2023-03-01T03:02:48;-2.10;99.90
51853;DHT22;37894;53.172;6.598;2023-03-01T03:05:16;-2.10;99.90
51853;DHT22;37894;53.172;6.598;2023-03-01T03:10:10;-2.10;99.90
51853;DHT22;37894;53.172;6.598;2023-03-01T03:15:02;-1.60;99.90
51853;DHT22;37894;53.172;6.598;2023-03-01T03:17:38;-1.80;99.90
51853;DHT22;37894;53.172;6.598;2023-03-01T03:20:04;-1.50;99.90
51853;DHT22;37894;53.172;6.598;2023-03-01T03:22:31;-1.10;99.90
51853;DHT22;37894;53.172;6.598;2023-03-01T03:24:57;-1.40;99.90
51853;DHT22;37894;53.172;6.598;2023-03-01T03:27:22;-2.10;99.90
51853;DHT22;37894;53.172;6.598;2023-03-01T03:37:06;-2.00;99.90
51853;DHT22;37894;53.172;6.598;2023-03-01T03:39:52;-1.90;99.90
51853;DHT22;37894;53.172;6.598;2023-03-01T03:42:20;-2.30;99.90
51853;DHT22;37894;53.172;6.598;2023-03-01T03:44:46;-1.70;99.90
51853;DHT22;37894;53.172;6.598;2023-03-01T03:49:38;-2.00;99.90
51853;DHT22;37894;53.172;6.598;2023-03-01T03:52:04;-2.10;99.90
51853;DHT22;37894;53.172;6.598;2023-03-01T03:54:29;-1.50;99.90
51853;DHT22;37894;53.172;6.598;2023-03-01T03:59:21;-2.00;99.90
51853;DHT22;37894;53.172;6.598;2023-03-01T04:01:46;-2.00;99.90
51853;DHT22;37894;53.172;6.598;2023-03-01T04:06:38;-1.60;99.90
51853;DHT22;37894;53.172;6.598;2023-03-01T04:11:30;-2.10;99.90
51853;DHT22;37894;53.172;6.598;2023-03-01T04:13:57;-1.90;99.90
51853;DHT22;37894;53.172;6.598;2023-03-01T04:16:24;-2.60;99.90
51853;DHT22;37894;53.172;6.598;2023-03-01T04:21:16;-1.70;99.90
51853;DHT22;37894;53.172;6.598;2023-03-01T04:26:08;-2.00;99.90
51853;DHT22;37894;53.172;6.598;2023-03-01T04:28:36;-2.40;99.90
51853;DHT22;37894;53.172;6.598;2023-03-01T04:31:13;-1.70;99.90
51853;DHT22;37894;53.172;6.598;2023-03-01T04:33:42;-2.20;99.90
51853;DHT22;37894;53.172;6.598;2023-03-01T04:36:09;-2.00;99.90
51853;DHT22;37894;53.172;6.598;2023-03-01T04:38:36;-1.00;99.90
51853;DHT22;37894;53.172;6.598;2023-03-01T04:41:04;-2.80;99.90
51853;DHT22;37894;53.172;6.598;2023-03-01T04:46:03;-2.30;99.90
51853;DHT22;37894;53.172;6.598;2023-03-01T04:48:30;-2.50;99.90
51853;DHT22;37894;53.172;6.598;2023-03-01T04:50:58;-2.40;99.90
51853;DHT22;37894;53.172;6.598;2023-03-01T04:53:24;-2.50;99.90
51853;DHT22;37894;53.172;6.598;2023-03-01T04:55:50;-3.20;99.90
51853;DHT22;37894;53.172;6.598;2023-03-01T04:58:16;-2.40;99.90
51853;DHT22;37894;53.172;6.598;2023-03-01T05:03:07;-2.60;99.90
51853;DHT22;37894;53.172;6.598;2023-03-01T05:12:51;-2.20;99.90
51853;DHT22;37894;53.172;6.598;2023-03-01T05:17:44;-2.20;99.90
51853;DHT22;37894;53.172;6.598;2023-03-01T05:27:27;-2.40;99.90
51853;DHT22;37894;53.172;6.598;2023-03-01T05:29:55;-2.20;99.90
51853;DHT22;37894;53.172;6.598;2023-03-01T05:32:20;-2.60;99.90
51853;DHT22;37894;53.172;6.598;2023-03-01T05:34:46;-2.80;99.90
51853;DHT22;37894;53.172;6.598;2023-03-01T05:37:12;-2.70;99.90
51853;DHT22;37894;53.172;6.598;2023-03-01T05:42:04;-1.90;99.90
51853;DHT22;37894;53.172;6.598;2023-03-01T05:44:30;-2.50;99.90
51853;DHT22;37894;53.172;6.598;2023-03-01T05:46:56;-2.70;99.90
51853;DHT22;37894;53.172;6.598;2023-03-01T05:49:22;-2.40;99.90
51853;DHT22;37894;53.172;6.598;2023-03-01T05:51:51;-2.60;99.90
51853;DHT22;37894;53.172;6.598;2023-03-01T05:54:17;-2.50;99.90
51853;DHT22;37894;53.172;6.598;2023-03-01T05:56:43;-2.40;99.90
51853;DHT22;37894;53.172;6.598;2023-03-01T06:01:35;-1.90;99.90
51853;DHT22;37894;53.172;6.598;2023-03-01T06:04:02;-2.40;99.90
51853;DHT22;37894;53.172;6.598;2023-03-01T06:08:53;-2.60;99.90
51853;DHT22;37894;53.172;6.598;2023-03-01T06:11:19;-2.90;99.90
51853;DHT22;37894;53.172;6.598;2023-03-01T06:16:11;-2.70;99.90
51853;DHT22;37894;53.172;6.598;2023-03-01T06:21:03;-1.70;99.90
51853;DHT22;37894;53.172;6.598;2023-03-01T06:23:29;-3.10;99.90
51853;DHT22;37894;53.172;6.598;2023-03-01T06:25:54;-2.70;99.90
51853;DHT22;37894;53.172;6.598;2023-03-01T06:28:20;-2.70;99.90
51853;DHT22;37894;53.172;6.598;2023-03-01T06:30:46;-2.70;99.90
51853;DHT22;37894;53.172;6.598;2023-03-01T06:33:11;-2.90;99.90
51853;DHT22;37894;53.172;6.598;2023-03-01T06:35:37;-2.50;99.90
51853;DHT22;37894;53.172;6.598;2023-03-01T06:38:05;-2.50;99.90
51853;DHT22;37894;53.172;6.598;2023-03-01T06:45:22;-2.80;99.90
51853;DHT22;37894;53.172;6.598;2023-03-01T06:47:48;-2.60;99.90
51853;DHT22;37894;53.172;6.598;2023-03-01T06:50:14;-2.40;99.90
51853;DHT22;37894;53.172;6.598;2023-03-01T06:52:40;-2.90;99.90
51853;DHT22;37894;53.172;6.598;2023-03-01T06:57:32;-2.30;99.90
51853;DHT22;37894;53.172;6.598;2023-03-01T06:59:57;-3.20;99.90
51853;DHT22;37894;53.172;6.598;2023-03-01T07:09:43;-2.60;99.90
51853;DHT22;37894;53.172;6.598;2023-03-01T07:14:35;-2.50;99.90
51853;DHT22;37894;53.172;6.598;2023-03-01T07:19:26;-2.00;99.90
51853;DHT22;37894;53.172;6.598;2023-03-01T07:21:52;-2.20;99.90
51853;DHT22;37894;53.172;6.598;2023-03-01T07:24:18;-1.60;99.90
51853;DHT22;37894;53.172;6.598;2023-03-01T07:26:43;-1.60;99.90
51853;DHT22;37894;53.172;6.598;2023-03-01T07:29:09;-2.40;99.90
51853;DHT22;37894;53.172;6.598;2023-03-01T07:38:54;-0.60;99.90
51853;DHT22;37894;53.172;6.598;2023-03-01T07:41:21;-1.30;99.90
51853;DHT22;37894;53.172;6.598;2023-03-01T07:43:46;-1.40;99.90
51853;DHT22;37894;53.172;6.598;2023-03-01T07:46:12;-1.80;99.90
51853;DHT22;37894;53.172;6.598;2023-03-01T07:48:38;-2.20;99.90
51853;DHT22;37894;53.172;6.598;2023-03-01T07:51:04;-1.40;99.90
51853;DHT22;37894;53.172;6.598;2023-03-01T07:58:22;-1.20;99.90
51853;DHT22;37894;53.172;6.598;2023-03-01T08:03:14;-1.40;99.90
51853;DHT22;37894;53.172;6.598;2023-03-01T08:05:40;-1.30;99.90
51853;DHT22;37894;53.172;6.598;2023-03-01T08:10:31;-0.70;99.90
51853;DHT22;37894;53.172;6.598;2023-03-01T08:17:49;-0.60;99.90
51853;DHT22;37894;53.172;6.598;2023-03-01T08:20:16;-0.60;99.90
51853;DHT22;37894;53.172;6.598;2023-03-01T08:22:42;-0.20;99.90
51853;DHT22;37894;53.172;6.598;2023-03-01T08:25:08;-0.30;99.90
51853;DHT22;37894;53.172;6.598;2023-03-01T08:30:00;-0.20;99.90
51853;DHT22;37894;53.172;6.598;2023-03-01T08:32:25;0.00;99.90
51853;DHT22;37894;53.172;6.598;2023-03-01T08:44:36;0.60;99.90
51853;DHT22;37894;53.172;6.598;2023-03-01T08:51:58;0.90;99.90
51853;DHT22;37894;53.172;6.598;2023-03-01T08:59:17;0.70;99.90
51853;DHT22;37894;53.172;6.598;2023-03-01T09:04:10;1.40;99.90
51853;DHT22;37894;53.172;6.598;2023-03-01T09:06:37;2.00;99.90
51853;DHT22;37894;53.172;6.598;2023-03-01T09:09:04;2.10;99.90
51853;DHT22;37894;53.172;6.598;2023-03-01T09:16:22;2.50;99.90
51853;DHT22;37894;53.172;6.598;2023-03-01T09:18:53;1.70;99.90
51853;DHT22;37894;53.172;6.598;2023-03-01T09:21:20;3.00;99.90
51853;DHT22;37894;53.172;6.598;2023-03-01T09:23:48;2.40;99.90
51853;DHT22;37894;53.172;6.598;2023-03-01T09:26:20;3.50;99.90
51853;DHT22;37894;53.172;6.598;2023-03-01T09:28:51;3.70;99.90
51853;DHT22;37894;53.172;6.598;2023-03-01T09:31:21;3.60;99.90
51853;DHT22;37894;53.172;6.598;2023-03-01T09:33:49;3.80;99.90
51853;DHT22;37894;53.172;6.598;2023-03-01T09:36:23;3.80;99.90
51853;DHT22;37894;53.172;6.598;2023-03-01T09:38:49;4.00;99.90
51853;DHT22;37894;53.172;6.598;2023-03-01T09:46:41;4.90;99.90
51853;DHT22;37894;53.172;6.598;2023-03-01T09:49:29;4.40;99.90
51853;DHT22;37894;53.172;6.598;2023-03-01T09:54:24;4.60;99.90
51853;DHT22;37894;53.172;6.598;2023-03-01T10:00:00;4.40;99.90
51853;DHT22;37894;53.172;6.598;2023-03-01T10:05:15;4.70;99.90
51853;DHT22;37894;53.172;6.598;2023-03-01T10:10:28;4.30;99.90
51853;DHT22;37894;53.172;6.598;2023-03-01T10:12:56;5.20;99.90
51853;DHT22;37894;53.172;6.598;2023-03-01T10:15:55;5.20;99.90
51853;DHT22;37894;53.172;6.598;2023-03-01T10:18:31;5.20;99.90
51853;DHT22;37894;53.172;6.598;2023-03-01T10:21:12;5.10;99.90
51853;DHT22;37894;53.172;6.598;2023-03-01T10:26:44;5.70;99.90
51853;DHT22;37894;53.172;6.598;2023-03-01T10:29:11;5.30;99.90
51853;DHT22;37894;53.172;6.598;2023-03-01T10:31:51;5.20;99.90
51853;DHT22;37894;53.172;6.598;2023-03-01T10:34:36;5.60;99.90
51853;DHT22;37894;53.172;6.598;2023-03-01T10:39:35;5.70;99.90
51853;DHT22;37894;53.172;6.598;2023-03-01T10:44:45;5.80;99.90
51853;DHT22;37894;53.172;6.598;2023-03-01T10:47:18;5.80;99.90
51853;DHT22;37894;53.172;6.598;2023-03-01T10:50:00;5.80;99.90
51853;DHT22;37894;53.172;6.598;2023-03-01T10:52:32;5.40;99.90
51853;DHT22;37894;53.172;6.598;2023-03-01T10:55:26;6.00;99.90
51853;DHT22;37894;53.172;6.598;2023-03-01T10:58:16;5.80;99.90
51853;DHT22;37894;53.172;6.598;2023-03-01T11:01:06;6.30;99.90
51853;DHT22;37894;53.172;6.598;2023-03-01T11:03:38;5.60;99.90
51853;DHT22;37894;53.172;6.598;2023-03-01T11:06:05;6.10;99.90
51853;DHT22;37894;53.172;6.598;2023-03-01T11:08:37;5.90;99.90
51853;DHT22;37894;53.172;6.598;2023-03-01T11:16:36;6.70;99.90
51853;DHT22;37894;53.172;6.598;2023-03-01T11:21:42;7.80;99.90
51853;DHT22;37894;53.172;6.598;2023-03-01T11:24:11;7.90;99.90
51853;DHT22;37894;53.172;6.598;2023-03-01T11:26:41;8.20;99.90
51853;DHT22;37894;53.172;6.598;2023-03-01T11:31:51;8.60;99.90
51853;DHT22;37894;53.172;6.598;2023-03-01T11:34:23;8.80;99.90
51853;DHT22;37894;53.172;6.598;2023-03-01T11:36:54;8.90;99.90
51853;DHT22;37894;53.172;6.598;2023-03-01T11:39:25;9.20;99.90
51853;DHT22;37894;53.172;6.598;2023-03-01T11:42:13;9.30;99.90
51853;DHT22;37894;53.172;6.598;2023-03-01T11:44:41;9.40;99.90
51853;DHT22;37894;53.172;6.598;2023-03-01T11:47:40;9.80;99.90
51853;DHT22;37894;53.172;6.598;2023-03-01T11:55:51;11.50;99.90
51853;DHT22;37894;53.172;6.598;2023-03-01T11:58:41;10.50;99.90
51853;DHT22;37894;53.172;6.598;2023-03-01T12:01:23;10.10;99.90
51853;DHT22;37894;53.172;6.598;2023-03-01T12:03:55;11.00;99.90
51853;DHT22;37894;53.172;6.598;2023-03-01T12:06:36;11.00;99.90
51853;DHT22;37894;53.172;6.598;2023-03-01T12:17:38;11.50;99.90
51853;DHT22;37894;53.172;6.598;2023-03-01T12:50:19;8.10;99.90
51853;DHT22;37894;53.172;6.598;2023-03-01T12:52:49;8.10;99.90
51853;DHT22;37894;53.172;6.598;2023-03-01T12:55:33;7.90;99.90
51853;DHT22;37894;53.172;6.598;2023-03-01T13:03:52;7.80;99.90
51853;DHT22;37894;53.172;6.598;2023-03-01T13:11:36;7.80;99.90
51853;DHT22;37894;53.172;6.598;2023-03-01T13:16:51;8.10;99.90
51853;DHT22;37894;53.172;6.598;2023-03-01T13:21:51;7.80;99.90
51853;DHT22;37894;53.172;6.598;2023-03-01T13:29:54;7.40;99.90
51853;DHT22;37894;53.172;6.598;2023-03-01T13:32:25;7.30;99.90
51853;DHT22;37894;53.172;6.598;2023-03-01T13:34:57;7.70;99.90
51853;DHT22;37894;53.172;6.598;2023-03-01T13:37:29;7.60;99.90
51853;DHT22;37894;53.172;6.598;2023-03-01T13:40:02;7.00;99.90
51853;DHT22;37894;53.172;6.598;2023-03-01T13:42:32;8.40;99.90
51853;DHT22;37894;53.172;6.598;2023-03-01T13:44:59;7.80;99.90
51853;DHT22;37894;53.172;6.598;2023-03-01T13:47:27;7.70;99.90
51853;DHT22;37894;53.172;6.598;2023-03-01T13:50:01;7.10;99.90
51853;DHT22;37894;53.172;6.598;2023-03-01T13:52:40;7.70;99.90
51853;DHT22;37894;53.172;6.598;2023-03-01T13:57:39;6.90;99.90
51853;DHT22;37894;53.172;6.598;2023-03-01T14:03:19;7.60;99.90
51853;DHT22;37894;53.172;6.598;2023-03-01T14:06:04;7.90;99.90
51853;DHT22;37894;53.172;6.598;2023-03-01T14:08:33;7.70;99.90
51853;DHT22;37894;53.172;6.598;2023-03-01T14:17:00;7.70;99.90
51853;DHT22;37894;53.172;6.598;2023-03-01T14:19:29;7.40;99.90
51853;DHT22;37894;53.172;6.598;2023-03-01T14:24:31;7.80;99.90
51853;DHT22;37894;53.172;6.598;2023-03-01T14:27:01;8.40;99.90
51853;DHT22;37894;53.172;6.598;2023-03-01T14:29:38;8.90;99.90
51853;DHT22;37894;53.172;6.598;2023-03-01T14:32:26;7.90;99.90
51853;DHT22;37894;53.172;6.598;2023-03-01T14:34:52;7.50;99.90
51853;DHT22;37894;53.172;6.598;2023-03-01T14:37:21;7.70;99.90
51853;DHT22;37894;53.172;6.598;2023-03-01T14:39:54;7.70;99.90
51853;DHT22;37894;53.172;6.598;2023-03-01T14:42:22;7.60;99.90
51853;DHT22;37894;53.172;6.598;2023-03-01T14:44:51;9.80;99.90
51853;DHT22;37894;53.172;6.598;2023-03-01T14:47:30;6.90;99.90
51853;DHT22;37894;53.172;6.598;2023-03-01T14:50:15;7.40;99.90
51853;DHT22;37894;53.172;6.598;2023-03-01T14:52:47;6.90;99.90
51853;DHT22;37894;53.172;6.598;2023-03-01T14:55:18;7.40;99.90
51853;DHT22;37894;53.172;6.598;2023-03-01T14:57:48;7.60;99.90
51853;DHT22;37894;53.172;6.598;2023-03-01T15:00:19;8.20;99.90
51853;DHT22;37894;53.172;6.598;2023-03-01T15:02:47;6.60;99.90
51853;DHT22;37894;53.172;6.598;2023-03-01T15:05:27;7.30;99.90
51853;DHT22;37894;53.172;6.598;2023-03-01T15:07:57;7.70;99.90
51853;DHT22;37894;53.172;6.598;2023-03-01T15:10:31;7.50;99.90
51853;DHT22;37894;53.172;6.598;2023-03-01T15:13:14;7.20;99.90
51853;DHT22;37894;53.172;6.598;2023-03-01T15:15:46;7.40;99.90
51853;DHT22;37894;53.172;6.598;2023-03-01T15:18:26;6.90;99.90
51853;DHT22;37894;53.172;6.598;2023-03-01T15:23:25;7.10;99.90
51853;DHT22;37894;53.172;6.598;2023-03-01T15:25:51;7.20;99.90
51853;DHT22;37894;53.172;6.598;2023-03-01T15:28:30;7.60;99.90
51853;DHT22;37894;53.172;6.598;2023-03-01T15:31:23;7.10;99.90
51853;DHT22;37894;53.172;6.598;2023-03-01T15:33:49;6.40;99.90
51853;DHT22;37894;53.172;6.598;2023-03-01T15:39:04;7.00;99.90
51853;DHT22;37894;53.172;6.598;2023-03-01T15:41:37;7.20;99.90
51853;DHT22;37894;53.172;6.598;2023-03-01T15:44:16;7.00;99.90
51853;DHT22;37894;53.172;6.598;2023-03-01T15:46:46;7.00;99.90
51853;DHT22;37894;53.172;6.598;2023-03-01T15:52:05;6.90;99.90
51853;DHT22;37894;53.172;6.598;2023-03-01T15:56:58;7.10;99.90
51853;DHT22;37894;53.172;6.598;2023-03-01T16:01:53;7.10;99.90
51853;DHT22;37894;53.172;6.598;2023-03-01T16:04:24;6.80;99.90
51853;DHT22;37894;53.172;6.598;2023-03-01T16:09:26;6.80;99.90
51853;DHT22;37894;53.172;6.598;2023-03-01T16:11:53;6.80;99.90
51853;DHT22;37894;53.172;6.598;2023-03-01T16:14:20;6.70;99.90
51853;DHT22;37894;53.172;6.598;2023-03-01T16:29:07;6.60;99.90
51853;DHT22;37894;53.172;6.598;2023-03-01T16:36:31;5.60;99.90
51853;DHT22;37894;53.172;6.598;2023-03-01T16:41:27;6.20;99.90
51853;DHT22;37894;53.172;6.598;2023-03-01T16:43:53;5.70;99.90
51853;DHT22;37894;53.172;6.598;2023-03-01T16:46:21;5.60;99.90
51853;DHT22;37894;53.172;6.598;2023-03-01T16:51:13;7.10;99.90
51853;DHT22;37894;53.172;6.598;2023-03-01T16:53:39;6.10;99.90
51853;DHT22;37894;53.172;6.598;2023-03-01T16:56:08;6.00;99.90
51853;DHT22;37894;53.172;6.598;2023-03-01T16:58:39;6.00;99.90
51853;DHT22;37894;53.172;6.598;2023-03-01T17:01:14;6.00;99.90
51853;DHT22;37894;53.172;6.598;2023-03-01T17:03:41;6.00;99.90
51853;DHT22;37894;53.172;6.598;2023-03-01T17:06:11;6.00;99.90
51853;DHT22;37894;53.172;6.598;2023-03-01T17:08:37;6.00;99.90
51853;DHT22;37894;53.172;6.598;2023-03-01T17:11:15;6.80;99.90
51853;DHT22;37894;53.172;6.598;2023-03-01T17:13:42;5.70;99.90
51853;DHT22;37894;53.172;6.598;2023-03-01T17:16:11;5.80;99.90
51853;DHT22;37894;53.172;6.598;2023-03-01T17:18:37;5.90;99.90
51853;DHT22;37894;53.172;6.598;2023-03-01T17:21:04;5.80;99.90
51853;DHT22;37894;53.172;6.598;2023-03-01T17:23:31;4.60;99.90
51853;DHT22;37894;53.172;6.598;2023-03-01T17:25:57;5.30;99.90
51853;DHT22;37894;53.172;6.598;2023-03-01T17:28:25;5.40;99.90
51853;DHT22;37894;53.172;6.598;2023-03-01T17:30:51;5.00;99.90
51853;DHT22;37894;53.172;6.598;2023-03-01T17:33:18;5.30;99.90
51853;DHT22;37894;53.172;6.598;2023-03-01T17:35:45;6.40;99.90
51853;DHT22;37894;53.172;6.598;2023-03-01T17:38:13;5.00;99.90
51853;DHT22;37894;53.172;6.598;2023-03-01T17:40:40;5.20;99.90
51853;DHT22;37894;53.172;6.598;2023-03-01T17:45:32;5.10;99.90
51853;DHT22;37894;53.172;6.598;2023-03-01T17:47:57;5.10;99.90
51853;DHT22;37894;53.172;6.598;2023-03-01T17:50:23;5.20;99.90
51853;DHT22;37894;53.172;6.598;2023-03-01T17:52:49;5.20;99.90
51853;DHT22;37894;53.172;6.598;2023-03-01T18:00:12;5.20;99.90
51853;DHT22;37894;53.172;6.598;2023-03-01T18:07:31;5.90;99.90
51853;DHT22;37894;53.172;6.598;2023-03-01T18:14:49;5.50;99.90
51853;DHT22;37894;53.172;6.598;2023-03-01T18:17:19;5.20;99.90
51853;DHT22;37894;53.172;6.598;2023-03-01T18:22:11;4.40;99.90
51853;DHT22;37894;53.172;6.598;2023-03-01T18:24:37;4.50;99.90
51853;DHT22;37894;53.172;6.598;2023-03-01T18:29:30;4.30;99.90
51853;DHT22;37894;53.172;6.598;2023-03-01T18:36:48;4.30;99.90
51853;DHT22;37894;53.172;6.598;2023-03-01T18:39:17;3.90;99.90
51853;DHT22;37894;53.172;6.598;2023-03-01T18:41:44;4.00;99.90
51853;DHT22;37894;53.172;6.598;2023-03-01T18:49:04;3.70;99.90
51853;DHT22;37894;53.172;6.598;2023-03-01T18:51:30;3.10;99.90
51853;DHT22;37894;53.172;6.598;2023-03-01T18:53:57;3.50;99.90
51853;DHT22;37894;53.172;6.598;2023-03-01T18:56:24;4.50;99.90
51853;DHT22;37894;53.172;6.598;2023-03-01T19:01:18;3.20;99.90
51853;DHT22;37894;53.172;6.598;2023-03-01T19:06:10;3.30;99.90
51853;DHT22;37894;53.172;6.598;2023-03-01T19:08:36;4.00;99.90
51853;DHT22;37894;53.172;6.598;2023-03-01T19:11:04;2.90;99.90
51853;DHT22;37894;53.172;6.598;2023-03-01T19:13:30;3.00;99.90
51853;DHT22;37894;53.172;6.598;2023-03-01T19:16:05;3.00;99.90
51853;DHT22;37894;53.172;6.598;2023-03-01T19:18:31;3.60;99.90
51853;DHT22;37894;53.172;6.598;2023-03-01T19:21:01;3.00;99.90
51853;DHT22;37894;53.172;6.598;2023-03-01T19:23:29;3.20;99.90
51853;DHT22;37894;53.172;6.598;2023-03-01T19:26:09;2.90;99.90
51853;DHT22;37894;53.172;6.598;2023-03-01T19:28:35;3.20;99.90
51853;DHT22;37894;53.172;6.598;2023-03-01T19:31:04;2.80;99.90
51853;DHT22;37894;53.172;6.598;2023-03-01T19:33:32;3.00;99.90
51853;DHT22;37894;53.172;6.598;2023-03-01T19:35:59;3.00;99.90
51853;DHT22;37894;53.172;6.598;2023-03-01T19:38:26;2.90;99.90
51853;DHT22;37894;53.172;6.598;2023-03-01T19:40:52;2.90;99.90
51853;DHT22;37894;53.172;6.598;2023-03-01T19:45:46;2.90;99.90
51853;DHT22;37894;53.172;6.598;2023-03-01T19:48:14;3.30;99.90
51853;DHT22;37894;53.172;6.598;2023-03-01T19:50:42;3.10;99.90
51853;DHT22;37894;53.172;6.598;2023-03-01T19:55:36;3.20;99.90
51853;DHT22;37894;53.172;6.598;2023-03-01T20:02:54;3.40;99.90
51853;DHT22;37894;53.172;6.598;2023-03-01T20:05:20;3.40;99.90
51853;DHT22;37894;53.172;6.598;2023-03-01T20:10:12;3.10;99.90
51853;DHT22;37894;53.172;6.598;2023-03-01T20:15:04;3.20;99.90
51853;DHT22;37894;53.172;6.598;2023-03-01T20:22:22;3.50;99.90
51853;DHT22;37894;53.172;6.598;2023-03-01T20:24:48;3.40;99.90
51853;DHT22;37894;53.172;6.598;2023-03-01T20:27:13;3.00;99.90
51853;DHT22;37894;53.172;6.598;2023-03-01T20:29:39;3.10;99.90
51853;DHT22;37894;53.172;6.598;2023-03-01T20:34:31;3.50;99.90
51853;DHT22;37894;53.172;6.598;2023-03-01T20:39:23;3.20;99.90
51853;DHT22;37894;53.172;6.598;2023-03-01T20:41:48;3.50;99.90
51853;DHT22;37894;53.172;6.598;2023-03-01T20:46:40;3.50;99.90
51853;DHT22;37894;53.172;6.598;2023-03-01T20:49:06;3.30;99.90
51853;DHT22;37894;53.172;6.598;2023-03-01T20:51:32;3.70;99.90
51853;DHT22;37894;53.172;6.598;2023-03-01T20:58:53;3.60;99.90
51853;DHT22;37894;53.172;6.598;2023-03-01T21:01:19;3.40;99.90
51853;DHT22;37894;53.172;6.598;2023-03-01T21:03:46;3.50;99.90
51853;DHT22;37894;53.172;6.598;2023-03-01T21:06:12;3.50;99.90
51853;DHT22;37894;53.172;6.598;2023-03-01T21:08:38;3.50;99.90
51853;DHT22;37894;53.172;6.598;2023-03-01T21:11:04;3.40;99.90
51853;DHT22;37894;53.172;6.598;2023-03-01T21:13:31;3.40;99.90
51853;DHT22;37894;53.172;6.598;2023-03-01T21:16:05;3.30;99.90
51853;DHT22;37894;53.172;6.598;2023-03-01T21:18:33;3.40;99.90
51853;DHT22;37894;53.172;6.598;2023-03-01T21:21:02;3.40;99.90
51853;DHT22;37894;53.172;6.598;2023-03-01T21:23:30;3.40;99.90
51853;DHT22;37894;53.172;6.598;2023-03-01T21:26:07;3.40;99.90
51853;DHT22;37894;53.172;6.598;2023-03-01T21:28:34;3.70;99.90
51853;DHT22;37894;53.172;6.598;2023-03-01T21:31:04;4.20;99.90
51853;DHT22;37894;53.172;6.598;2023-03-01T21:33:34;3.50;99.90
51853;DHT22;37894;53.172;6.598;2023-03-01T21:36:02;3.40;99.90
51853;DHT22;37894;53.172;6.598;2023-03-01T21:38:30;2.20;99.90
51853;DHT22;37894;53.172;6.598;2023-03-01T21:40:56;3.20;99.90
51853;DHT22;37894;53.172;6.598;2023-03-01T21:43:23;3.60;99.90
51853;DHT22;37894;53.172;6.598;2023-03-01T21:45:48;3.30;99.90
51853;DHT22;37894;53.172;6.598;2023-03-01T21:48:14;3.50;99.90
51853;DHT22;37894;53.172;6.598;2023-03-01T21:53:06;3.00;99.90
51853;DHT22;37894;53.172;6.598;2023-03-01T21:55:32;3.50;99.90
51853;DHT22;37894;53.172;6.598;2023-03-01T22:00:24;3.60;99.90
51853;DHT22;37894;53.172;6.598;2023-03-01T22:02:52;3.60;99.90
51853;DHT22;37894;53.172;6.598;2023-03-01T22:05:22;3.50;99.90
51853;DHT22;37894;53.172;6.598;2023-03-01T22:07:48;3.60;99.90
51853;DHT22;37894;53.172;6.598;2023-03-01T22:10:14;2.70;99.90
51853;DHT22;37894;53.172;6.598;2023-03-01T22:12:39;3.50;99.90
51853;DHT22;37894;53.172;6.598;2023-03-01T22:17:32;3.40;99.90
51853;DHT22;37894;53.172;6.598;2023-03-01T22:19:57;3.40;99.90
51853;DHT22;37894;53.172;6.598;2023-03-01T22:22:23;3.30;99.90
51853;DHT22;37894;53.172;6.598;2023-03-01T22:27:15;4.30;99.90
51853;DHT22;37894;53.172;6.598;2023-03-01T22:32:07;3.40;99.90
51853;DHT22;37894;53.172;6.598;2023-03-01T22:34:32;2.50;99.90
51853;DHT22;37894;53.172;6.598;2023-03-01T22:36:58;3.40;99.90